Latest Weather Observations for Ceduna

IDS60801

Issued at 7:01 am CDT Tuesday 6 December 2016 (issued every 30 minutes, with the page automatically refreshed every 10 minutes)

About weather observations | Map of weather stations | Latest weather observations for SA | Other Formats
Station Details ID: 018012 Name: CEDUNA AMO Lat: -32.13 Lon: 133.70 Height: 15.3 m
Data from the previous 72 hours. | See also: Recent months at Ceduna
Date/Time
CDT
Temp
°C
App
Temp
°C
Dew
Point
°C
Rel
Hum
%
Delta-T
°C
Wind Press
QNH
hPa
Press
MSL
hPa
Rain since
9am
mm
Dir  Spd
km/h
Gust
km/h
Spd
kts
Gust
kts
06/07:00am 15.7 15.5 13.5 87 1.2 E 7 9 4 5 1014.0 1013.9 4.4
06/06:30am 15.4 14.2 12.9 85 1.4 ENE 11 15 6 8 1014.0 1013.9 4.4
06/06:00am 15.3 12.2 13.3 88 1.1 ENE 22 28 12 15 1013.2 1013.1 4.4
06/05:30am 15.6 14.6 14.5 93 0.6 ENE 13 17 7 9 1014.5 1014.4 4.4
06/05:00am 15.6 15.0 14.6 94 0.6 E 11 17 6 9 1015.4 1015.3 4.4
06/04:30am 15.6 15.3 14.5 93 0.6 ESE 9 11 5 6 1015.6 1015.5 3.6
06/04:00am 15.6 15.7 14.0 90 0.9 WSW 6 9 3 5 1016.4 1016.3 3.4
06/03:30am 16.0 14.4 13.8 87 1.2 SW 15 20 8 11 1017.0 1016.9 2.0
06/03:00am 16.5 15.9 12.3 76 2.3 SE 7 28 4 15 1016.4 1016.3 0.0
06/02:30am 16.5 14.7 12.1 75 2.4 E 13 17 7 9 1014.5 1014.4 0.0
06/02:00am 16.3 14.5 12.1 76 2.3 SE 13 17 7 9 1014.4 1014.3 0.0
06/01:30am 16.6 14.1 12.2 75 2.4 SE 17 22 9 12 1014.5 1014.4 0.0
06/01:00am 16.8 13.4 12.5 76 2.4 SSE 22 28 12 15 1014.7 1014.6 0.0
06/12:30am 17.0 12.2 12.9 77 2.3 S 30 43 16 23 1014.7 1014.6 0.0
06/12:00am 17.1 11.8 13.2 78 2.2 S 33 46 18 25 1014.8 1014.7 0.0
 
Date/Time
CDT
Temp
°C
App
Temp
°C
Dew
Point
°C
Rel
Hum
%
Delta-T
°C
Wind Press
QNH
hPa
Press
MSL
hPa
Rain since
9am
mm
Dir  Spd
km/h
Gust
km/h
Spd
kts
Gust
kts
05/11:30pm 17.4 13.9 13.5 78 2.2 S 24 32 13 17 1015.9 1015.8 0.0
05/11:00pm 17.1 14.5 13.2 78 2.2 S 19 20 10 11 1015.4 1015.3 0.0
05/10:30pm 16.9 14.6 13.0 78 2.2 SSE 17 22 9 12 1014.4 1014.3 0.0
05/10:00pm 16.8 14.9 12.9 78 2.2 SSE 15 19 8 10 1014.1 1014.0 0.0
05/09:30pm 16.8 15.2 12.7 77 2.3 SSE 13 19 7 10 1013.8 1013.7 0.0
05/09:00pm 17.1 14.8 13.0 77 2.3 SSE 17 20 9 11 1014.0 1013.9 0.0
05/08:30pm 17.2 14.9 12.9 76 2.4 SSE 17 22 9 12 1013.9 1013.8 0.0
05/08:00pm 17.5 15.3 13.2 76 2.4 SSE 17 22 9 12 1013.7 1013.6 0.0
05/07:30pm 17.7 14.6 13.4 76 2.4 SSE 22 28 12 15 1012.6 1012.5 0.0
05/07:00pm 18.2 14.7 13.5 74 2.7 S 24 32 13 17 1012.7 1012.6 0.0
05/06:30pm 17.9 13.9 13.0 73 2.8 S 26 33 14 18 1012.3 1012.2 0.0
05/06:00pm 18.4 14.1 13.1 71 3.0 SSE 28 33 15 18 1012.2 1012.1 0.0
05/05:30pm 18.8 15.2 13.2 70 3.2 SSE 24 32 13 17 1012.0 1011.9 0.0
05/05:00pm 19.4 15.8 12.9 66 3.7 S 24 32 13 17 1012.3 1012.2 0.0
05/04:30pm 19.5 16.0 13.4 68 3.5 S 24 28 13 15 1013.0 1012.9 0.0
05/04:00pm 18.8 15.2 13.2 70 3.2 S 24 28 13 15 1013.0 1012.9 0.0
05/03:30pm 18.6 14.7 13.2 71 3.1 S 26 32 14 17 1013.0 1012.9 0.0
05/03:00pm 18.9 15.4 13.3 70 3.2 S 24 30 13 16 1013.1 1013.0 0.0
05/02:30pm 19.3 15.7 13.0 67 3.6 S 24 32 13 17 1013.1 1013.0 0.0
05/02:00pm 19.5 16.6 12.8 65 3.8 S 20 32 11 17 1013.5 1013.4 0.0
05/01:30pm 19.2 15.8 12.5 65 3.7 SSE 22 28 12 15 1013.1 1013.0 0.0
05/01:00pm 19.3 14.8 12.6 65 3.8 S 28 33 15 18 1013.4 1013.3 0.0
05/12:30pm 18.8 15.8 12.5 67 3.5 S 20 28 11 15 1014.9 1014.8 0.0
05/12:00pm 19.5 16.7 11.3 59 4.5 SSE 17 24 9 13 1015.0 1014.9 0.0
05/11:30am 20.9 18.1 11.3 54 5.3 S 17 30 9 16 1015.2 1015.1 0.0
05/11:00am 20.1 18.3 10.8 55 5.1 S 11 17 6 9 1015.4 1015.3 0.0
05/10:30am 19.9 16.9 10.6 55 5.0 SE 17 22 9 12 1014.9 1014.8 0.0
05/10:00am 18.7 15.7 10.5 59 4.4 SE 17 24 9 13 1014.9 1014.8 0.0
05/09:30am 19.1 16.1 10.6 58 4.6 ESE 17 24 9 13 1015.6 1015.5 0.0
05/09:00am 18.1 14.6 11.0 63 3.8 ESE 20 24 11 13 1015.3 1015.2 0.0
05/08:30am 17.8 14.5 10.9 64 3.7 SSE 19 24 10 13 1015.4 1015.3 0.0
05/08:00am 17.7 14.6 11.5 67 3.4 SSE 19 26 10 14 1015.4 1015.3 0.0
05/07:30am 17.9 16.0 11.7 67 3.4 SSE 13 20 7 11 1015.1 1015.0 0.0
05/07:00am 16.2 14.1 11.2 72 2.7 S 13 17 7 9 1015.0 1014.9 0.0
05/06:30am 16.1 14.5 11.7 75 2.4 S 11 17 6 9 1014.6 1014.5 0.0
05/06:00am 15.5 13.1 11.3 76 2.3 SSE 15 19 8 10 1013.3 1013.2 0.0
05/05:30am 15.6 13.6 11.6 77 2.2 SE 13 17 7 9 1013.4 1013.3 0.0
05/05:00am 16.1 13.8 11.9 76 2.3 SE 15 20 8 11 1013.3 1013.2 0.0
05/04:30am 16.3 13.7 12.1 76 2.3 SE 17 20 9 11 1012.4 1012.3 0.0
05/04:00am 16.9 14.7 12.0 73 2.7 SSE 15 20 8 11 1012.9 1012.8 0.0
05/03:30am 16.9 14.4 12.2 74 2.6 SSE 17 24 9 13 1012.9 1012.8 0.0
05/03:00am 17.0 13.9 12.3 74 2.6 S 20 28 11 15 1012.6 1012.5 0.0
05/02:30am 16.8 14.2 11.9 73 2.7 S 17 22 9 12 1012.9 1012.8 0.0
05/02:00am 17.3 14.3 12.6 74 2.6 S 20 28 11 15 1012.7 1012.6 0.0
05/01:30am 17.5 14.7 13.2 76 2.4 S 20 26 11 14 1012.9 1012.8 0.0
05/01:00am 17.7 15.5 13.4 76 2.4 S 17 22 9 12 1013.1 1013.0 0.0
05/12:30am 17.8 14.8 12.5 71 2.9 S 20 30 11 16 1013.1 1013.0 0.0
05/12:00am 18.1 14.6 13.4 74 2.7 S 24 28 13 15 1013.2 1013.1 0.0
 
Date/Time
CDT
Temp
°C
App
Temp
°C
Dew
Point
°C
Rel
Hum
%
Delta-T
°C
Wind Press
QNH
hPa
Press
MSL
hPa
Rain since
9am
mm
Dir  Spd
km/h
Gust
km/h
Spd
kts
Gust
kts
04/11:30pm 18.3 15.8 14.0 76 2.5 S 20 28 11 15 1013.2 1013.1 0.0
04/11:00pm 18.3 15.8 14.0 76 2.5 S 20 30 11 16 1013.2 1013.1 0.0
04/10:30pm 18.4 16.1 14.7 79 2.1 S 20 30 11 16 1012.6 1012.5 0.0
04/10:00pm 18.7 15.3 14.8 78 2.3 SSW 26 32 14 17 1012.6 1012.5 0.0
04/09:30pm 18.7 15.2 14.6 77 2.4 S 26 35 14 19 1012.1 1012.0 0.0
04/09:00pm 18.8 15.5 14.9 78 2.3 SSW 26 35 14 19 1011.8 1011.7 0.0
04/08:30pm 18.9 14.4 15.0 78 2.3 SSW 32 39 17 21 1011.4 1011.3 0.0
04/08:00pm 19.0 15.3 15.1 78 2.3 SSW 28 39 15 21 1010.8 1010.7 0.0
04/07:30pm 19.7 15.1 15.1 75 2.7 SSW 33 44 18 24 1010.1 1010.0 0.0
04/07:00pm 21.1 16.2 15.4 70 3.4 SSW 35 44 19 24 1009.6 1009.5 0.0
04/06:30pm 21.1 15.7 15.9 72 3.1 SW 39 50 21 27 1009.3 1009.2 0.0
04/06:28pm 21.5 16.2 16.2 72 3.2 SW 39 52 21 28 1009.2 1009.1 0.0
04/06:00pm 21.0 16.9 17.4 80 2.2 SW 35 46 19 25 1008.7 1008.6 0.0
04/05:32pm 24.0 21.1 20.1 79 2.5 WSW 35 44 19 24 1007.7 1007.6 0.0
04/05:30pm 23.8 21.1 19.7 78 2.6 WSW 33 44 18 24 1007.7 1007.6 0.0
04/05:00pm 26.2 24.0 20.8 72 3.6 WSW 33 43 18 23 1007.2 1007.1 0.0
04/04:35pm 26.0 22.1 19.6 68 4.1 WSW 39 57 21 31 1006.8 1006.7 0.0
04/04:30pm 25.0 20.0 18.9 69 3.9 WSW 43 57 23 31 1006.7 1006.6 0.0
04/04:00pm 27.4 23.0 18.4 58 5.7 WSW 39 54 21 29 1005.9 1005.8 0.0
04/03:30pm 28.3 23.2 18.7 56 6.2 WSW 43 57 23 31 1004.9 1004.8 0.0
04/03:00pm 30.3 24.1 16.0 42 8.9 WSW 43 61 23 33 1004.1 1004.0 0.0
04/02:30pm 31.8 25.1 16.1 38 9.9 WSW 46 65 25 35 1003.8 1003.7 0.0
04/02:03pm 32.1 27.0 14.7 35 10.7 W 35 56 19 30 1003.7 1003.6 0.0
04/02:00pm 32.7 27.6 14.8 34 11.0 W 35 52 19 28 1003.6 1003.5 0.0
04/01:58pm 33.6 28.4 14.6 31 11.7 WNW 35 48 19 26 1003.7 1003.6 0.0
04/01:30pm 36.4 32.1 15.5 29 13.2 WNW 32 44 17 24 1003.3 1003.2 0.0
04/01:00pm 36.9 33.0 17.0 31 12.8 NW 33 52 18 28 1003.5 1003.4 0.0
04/12:30pm 35.8 31.5 17.0 32 12.1 NNW 35 50 19 27 1003.5 1003.4 0.0
04/12:22pm 35.6 31.5 17.3 33 11.8 NNW 35 54 19 29 1003.6 1003.5 0.0
04/12:00pm 36.2 30.8 17.8 33 12.0 NNW 43 56 23 30 1003.6 1003.5 0.0
04/11:35am 36.4 30.9 18.0 33 12.0 NNW 44 63 24 34 1003.8 1003.7 0.0
04/11:30am 36.8 31.6 18.4 34 12.1 NNW 43 57 23 31 1003.9 1003.8 0.0
04/11:00am 37.0 31.9 19.0 34 11.9 NNW 44 57 24 31 1004.1 1004.0 0.0
04/10:30am 33.8 28.4 17.1 37 10.7 NNW 41 54 22 29 1004.6 1004.5 0.0
04/10:00am 32.4 27.0 17.1 40 9.7 N 41 56 22 30 1004.5 1004.4 0.0
04/09:30am 31.2 25.3 16.8 42 9.1 N 43 54 23 29 1004.8 1004.7 0.0
04/09:05am 31.6 26.6 17.1 41 9.2 N 39 59 21 32 1005.4 1005.3 0.0
04/09:00am 31.2 26.1 16.8 42 9.1 N 39 56 21 30 1005.5 1005.4 0.0
04/08:42am 29.8 24.5 16.2 43 8.5 N 39 57 21 31 1005.6 1005.5 0.0
04/08:30am 29.1 23.3 16.0 45 8.1 N 41 54 22 29 1005.5 1005.4 0.0
04/08:00am 28.3 24.2 15.9 47 7.6 N 32 43 17 23 1005.3 1005.2 0.0
04/07:30am 28.1 24.6 15.4 46 7.8 N 28 33 15 18 1005.3 1005.2 0.0
04/07:00am 28.2 24.8 15.8 47 7.6 N 28 35 15 19 1005.1 1005.0 0.0
04/06:30am 28.2 24.9 15.1 44 8.0 N 26 37 14 20 1004.7 1004.6 0.0
04/06:00am 27.5 26.1 15.5 48 7.3 N 17 20 9 11 1005.4 1005.3 0.0
04/05:30am 27.2 27.0 14.6 46 7.6 N 9 13 5 7 1005.0 1004.9 0.0
04/05:00am 27.8 26.1 13.7 42 8.4 NNW 15 20 8 11 1005.1 1005.0 0.0
04/04:30am 28.6 26.7 12.9 38 9.3 N 15 17 8 9 1005.2 1005.1 0.0
04/04:00am 29.4 26.3 12.3 34 10.0 N 20 26 11 14 1004.7 1004.6 0.0
04/03:30am 28.9 26.3 11.9 35 9.9 N 17 24 9 13 1005.3 1005.2 0.0
04/03:00am 28.5 25.9 10.7 33 10.1 NNW 15 20 8 11 1005.1 1005.0 0.0
04/02:30am 27.8 24.8 9.1 31 10.3 NE 15 19 8 10 1004.8 1004.7 0.0
04/02:00am 27.4 23.8 8.3 30 10.4 NE 17 22 9 12 1004.9 1004.8 0.0
04/01:30am 27.2 23.1 6.0 26 11.1 NE 17 20 9 11 1005.1 1005.0 0.0
04/01:00am 26.4 21.6 4.8 25 11.0 ENE 19 22 10 12 1005.2 1005.1 0.0
04/12:30am 26.0 21.2 4.5 25 10.9 NNE 19 22 10 12 1005.7 1005.6 0.0
04/12:00am 25.3 20.7 3.9 25 10.6 ENE 17 20 9 11 1005.9 1005.8 0.0
 
Date/Time
CDT
Temp
°C
App
Temp
°C
Dew
Point
°C
Rel
Hum
%
Delta-T
°C
Wind Press
QNH
hPa
Press
MSL
hPa
Rain since
9am
mm
Dir  Spd
km/h
Gust
km/h
Spd
kts
Gust
kts
03/11:30pm 25.9 21.7 3.8 24 11.0 E 15 17 8 9 1005.9 1005.8 0.0
03/11:00pm 26.0 21.1 3.9 24 11.0 E 19 24 10 13 1006.4 1006.3 0.0
03/10:30pm 25.9 22.6 4.4 25 10.8 ENE 11 15 6 8 1007.1 1007.0 0.0
03/10:00pm 27.6 22.9 5.2 24 11.5 E 19 22 10 12 1006.8 1006.7 0.0
03/09:30pm 26.2 23.5 5.7 27 10.6 ESE 9 11 5 6 1006.5 1006.4 0.0
03/09:00pm 28.0 23.8 5.6 24 11.7 ESE 17 22 9 12 1006.3 1006.2 0.0
03/08:30pm 28.0 25.0 7.8 28 10.9 SE 13 19 7 10 1006.4 1006.3 0.0
03/08:00pm 28.8 24.5 7.9 27 11.3 SE 20 26 11 14 1006.5 1006.4 0.0
03/07:30pm 29.0 23.1 7.6 26 11.6 SSE 28 39 15 21 1006.4 1006.3 0.0
03/07:00pm 28.5 20.4 5.4 23 12.0 SSE 37 50 20 27 1006.3 1006.2 0.0
03/06:30pm 29.4 21.7 5.5 22 12.5 SSE 35 44 19 24 1006.4 1006.3 0.0
03/06:00pm 29.2 22.5 8.3 27 11.5 SSE 33 43 18 23 1006.9 1006.8 0.0
03/05:30pm 28.9 23.5 11.0 33 10.3 SSE 30 41 16 22 1007.1 1007.0 0.0
03/05:00pm 27.8 22.0 11.4 36 9.4 SSE 33 44 18 24 1007.4 1007.3 0.0
03/04:30pm 27.2 20.7 10.4 35 9.5 SSE 35 43 19 23 1007.6 1007.5 0.0
03/04:00pm 26.8 20.9 11.3 38 8.8 S 33 41 18 22 1007.9 1007.8 0.0
03/03:30pm 27.0 21.9 13.0 42 8.2 S 32 39 17 21 1008.4 1008.3 0.0
03/03:00pm 26.1 21.6 13.9 47 7.2 S 30 35 16 19 1008.6 1008.5 0.0
03/02:30pm 26.1 21.9 13.6 46 7.4 S 28 33 15 18 1009.2 1009.1 0.0
03/02:00pm 25.2 21.4 13.7 49 6.8 S 26 30 14 16 1009.7 1009.6 0.0
03/01:30pm 25.6 22.0 14.1 49 6.8 S 26 32 14 17 1010.1 1010.0 0.0
03/01:00pm 24.8 21.6 14.3 52 6.2 SSW 24 30 13 16 1010.4 1010.3 0.0
03/12:30pm 24.4 22.3 15.1 56 5.6 SSW 20 24 11 13 1010.9 1010.8 0.0
03/12:00pm 24.4 22.0 13.9 52 6.2 SSW 19 26 10 14 1011.3 1011.2 0.0
03/11:30am 22.8 20.2 13.8 57 5.2 SSW 20 24 11 13 1011.5 1011.4 0.0
03/11:00am 22.1 19.3 13.2 57 5.1 SSW 20 24 11 13 1011.8 1011.7 0.0
03/10:30am 22.1 19.7 12.6 55 5.4 SW 17 24 9 13 1011.8 1011.7 0.0
03/10:00am 24.4 23.5 10.7 42 7.6 NNE 6 9 3 5 1011.8 1011.7 0.0
03/09:30am 21.8 19.5 10.6 49 6.1 NE 13 17 7 9 1011.8 1011.7 0.0
03/09:00am 19.5 17.4 11.3 59 4.5 ENE 13 17 7 9 1012.1 1012.0 0.0
03/08:30am 17.2 13.9 11.0 67 3.3 E 19 22 10 12 1011.9 1011.8 0.0
03/08:00am 15.7 12.9 11.3 75 2.4 ESE 17 20 9 11 1011.9 1011.8 0.0
03/07:30am 14.7 13.2 11.8 83 1.6 ESE 11 15 6 8 1011.8 1011.7 0.0

Other Formats:

Comma delimited format used in spreadsheet applications
http://www.bom.gov.au/fwo/IDS60801/IDS60801.94653.axf

JavaScript Object Notation format (JSON) in row-major order
http://www.bom.gov.au/fwo/IDS60801/IDS60801.94653.json